Time;durP1;ratioP1;P1;durP2;ratioP2;P2;SDS_P1;SDS_P2;PMS_P1;PMS_P2;Temp;Humidity;BMP_temperature;BMP_pressure;BME280_temperature;BME280_humidity;BME280_pressure;Samples;Min_cycle;Max_cycle;Signal;HPM_P1;HPM_P2
2022/06/06 00:02:08;;;;;;;;;4.50;3.00;;;28.07;97701.05;;;;117430;1190;25511;-58
2022/06/06 00:04:36;;;;;;;;;4.33;4.00;;;28.08;97703.80;;;;117398;1190;25249;-55
2022/06/06 00:07:05;;;;;;;;;4.25;3.75;;;28.07;97700.45;;;;117421;1189;25110;-52
2022/06/06 00:09:34;;;;;;;;;3.75;3.75;;;28.07;97700.95;;;;117461;1190;25249;-58
2022/06/06 00:12:04;;;;;;;;;3.25;3.00;;;28.07;97700.32;;;;117526;1190;25769;-59
2022/06/06 00:14:35;;;;;;;;;5.00;3.50;;;28.08;97698.40;;;;117421;1190;25011;-58
2022/06/06 00:17:03;;;;;;;;;3.25;3.25;;;28.09;97697.98;;;;117524;1190;25752;-61
2022/06/06 00:19:32;;;;;;;;;6.50;4.50;;;28.08;97701.31;;;;117422;1191;25982;-66
2022/06/06 00:22:00;;;;;;;;;2.50;2.50;;;28.07;97695.57;;;;117496;1191;24897;-59
2022/06/06 00:24:28;;;;;;;;;3.00;3.00;;;28.06;97701.05;;;;117471;1189;26671;-64
2022/06/06 00:26:57;;;;;;;;;6.00;5.00;;;28.06;97702.08;;;;117370;1190;25385;-56
2022/06/06 00:29:27;;;;;;;;;3.00;3.00;;;28.05;97703.62;;;;117379;1191;25960;-58
2022/06/06 00:34:49;;;;;;;;;1.75;0.75;;;28.04;97708.14;;;;117420;1190;26107;-57
2022/06/06 00:37:26;;;;;;;;;3.00;3.00;;;28.05;97703.60;;;;117412;1191;25978;-54
2022/06/06 00:39:55;;;;;;;;;5.00;5.00;;;28.04;97702.36;;;;117418;1190;25287;-59
2022/06/06 00:42:25;;;;;;;;;3.00;3.00;;;28.03;97705.58;;;;117452;1189;24733;-55
2022/06/06 00:45:23;;;;;;;;;3.25;2.25;;;28.04;97702.44;;;;117436;1190;25193;-60
2022/06/06 00:48:12;;;;;;;;;6.25;3.25;;;28.06;97697.77;;;;117404;1190;24953;-55
2022/06/06 00:51:00;;;;;;;;;2.00;2.00;;;28.05;97694.75;;;;117398;1190;24813;-58
2022/06/06 00:53:54;;;;;;;;;3.00;3.00;;;28.03;97687.54;;;;117461;1190;24833;-57
2022/06/06 00:56:30;;;;;;;;;2.00;2.00;;;28.03;97682.49;;;;117504;1191;25045;-58
2022/06/06 00:59:03;;;;;;;;;5.00;4.00;;;28.02;97684.77;;;;117417;1189;25645;-56
2022/06/06 01:01:34;;;;;;;;;3.00;3.00;;;28.02;97691.71;;;;117389;1190;26234;-54
2022/06/06 01:04:04;;;;;;;;;1.75;1.75;;;28.02;97695.17;;;;117460;1190;25581;-58
2022/06/06 01:06:35;;;;;;;;;3.00;3.00;;;28.02;97694.86;;;;117506;1191;25384;-59
2022/06/06 01:09:04;;;;;;;;;4.00;3.25;;;28.02;97693.62;;;;117482;1190;25359;-57
2022/06/06 01:11:36;;;;;;;;;2.50;2.50;;;28.02;97690.63;;;;117551;1190;25246;-58
2022/06/06 01:14:06;;;;;;;;;3.00;3.00;;;28.01;97691.05;;;;117478;1190;25850;-58
2022/06/06 01:16:55;;;;;;;;;4.00;2.00;;;28.00;97680.23;;;;117442;1191;24705;-58
2022/06/06 01:19:36;;;;;;;;;2.75;2.00;;;27.99;97674.66;;;;117492;1190;25303;-56
2022/06/06 01:22:42;;;;;;;;;3.00;2.25;;;27.99;97674.60;;;;117447;1189;25622;-58
2022/06/06 01:25:47;;;;;;;;;3.67;2.00;;;28.02;97675.70;;;;117408;1190;25550;-57
2022/06/06 01:28:36;;;;;;;;;2.67;2.67;;;27.99;97674.04;;;;117407;1190;24959;-56
2022/06/06 01:31:09;;;;;;;;;3.75;2.50;;;27.96;97674.85;;;;117406;1189;25046;-58
2022/06/06 01:34:07;;;;;;;;;2.00;2.00;;;27.94;97672.69;;;;117417;1189;25123;-59
2022/06/06 01:36:36;;;;;;;;;3.50;3.00;;;27.98;97673.56;;;;117402;1191;25191;-58
2022/06/06 01:39:07;;;;;;;;;3.00;3.00;;;28.00;97675.80;;;;117408;1189;25008;-57
2022/06/06 01:41:42;;;;;;;;;2.00;2.00;;;27.98;97676.40;;;;117397;1189;25757;-59
2022/06/06 01:44:19;;;;;;;;;3.50;2.00;;;27.97;97681.79;;;;117395;1190;24797;-57
2022/06/06 01:46:47;;;;;;;;;3.67;3.00;;;27.98;97684.98;;;;117425;1191;25654;-57
2022/06/06 01:49:16;;;;;;;;;3.25;3.25;;;27.98;97681.15;;;;117415;1190;25078;-56
2022/06/06 01:51:58;;;;;;;;;4.00;3.00;;;27.96;97679.90;;;;117489;1189;25107;-58
2022/06/06 01:54:26;;;;;;;;;3.50;3.50;;;27.97;97680.93;;;;117455;1191;25339;-56
2022/06/06 01:56:54;;;;;;;;;3.75;3.00;;;27.98;97678.59;;;;117414;1190;25186;-57
2022/06/06 01:59:22;;;;;;;;;4.00;3.00;;;27.96;97678.31;;;;117222;1192;25328;-58
2022/06/06 02:01:52;;;;;;;;;2.00;2.00;;;27.95;97676.79;;;;117357;1191;25624;-57
2022/06/06 02:04:20;;;;;;;;;3.67;2.00;;;27.94;97674.01;;;;117396;1191;25312;-60
2022/06/06 02:06:47;;;;;;;;;2.25;1.50;;;27.92;97673.35;;;;117425;1190;25178;-58
2022/06/06 02:09:15;;;;;;;;;2.00;2.00;;;27.91;97669.87;;;;117404;1190;25016;-58
2022/06/06 02:11:43;;;;;;;;;2.25;2.00;;;27.90;97671.05;;;;117402;1190;25627;-61
2022/06/06 02:14:11;;;;;;;;;3.00;2.00;;;27.90;97670.91;;;;117388;1189;25667;-58
2022/06/06 02:16:40;;;;;;;;;4.00;4.00;;;27.89;97671.95;;;;117433;1190;25174;-55
2022/06/06 02:19:11;;;;;;;;;2.00;2.00;;;27.88;97668.88;;;;117443;1191;24931;-57
2022/06/06 02:21:39;;;;;;;;;2.00;2.00;;;27.89;97671.02;;;;117416;1190;26605;-56
2022/06/06 02:24:06;;;;;;;;;2.25;2.25;;;27.89;97669.35;;;;117372;1190;25072;-60
2022/06/06 02:26:34;;;;;;;;;2.33;2.00;;;27.88;97670.64;;;;117404;1190;25365;-57
2022/06/06 02:29:02;;;;;;;;;1.00;1.00;;;27.87;97670.78;;;;117438;1190;25713;-55
2022/06/06 02:31:37;;;;;;;;;2.00;1.25;;;27.87;97673.10;;;;117497;1190;25551;-54
2022/06/06 02:34:06;;;;;;;;;2.00;2.00;;;27.87;97677.51;;;;117495;1190;25397;-56
2022/06/06 02:36:35;;;;;;;;;5.00;2.00;;;27.88;97681.57;;;;117444;1190;25000;-57
2022/06/06 02:39:03;;;;;;;;;3.00;3.00;;;27.87;97682.59;;;;117392;1190;25784;-55
2022/06/06 02:41:31;;;;;;;;;3.25;3.00;;;27.87;97682.66;;;;117463;1190;25530;-58
2022/06/06 02:43:58;;;;;;;;;4.33;3.00;;;27.87;97681.45;;;;117407;1190;25730;-59
2022/06/06 02:46:31;;;;;;;;;1.00;1.00;;;27.86;97678.08;;;;117400;1191;25697;-57
2022/06/06 02:48:59;;;;;;;;;2.67;1.33;;;27.86;97676.13;;;;117526;1189;25485;-59
2022/06/06 02:51:28;;;;;;;;;3.00;3.00;;;27.88;97672.46;;;;117418;1190;25708;-59
2022/06/06 02:54:00;;;;;;;;;4.50;4.50;;;27.86;97669.14;;;;117431;1189;25220;-58
2022/06/06 02:56:28;;;;;;;;;1.75;1.75;;;27.84;97667.83;;;;117505;1189;25049;-55
2022/06/06 02:59:00;;;;;;;;;3.00;2.75;;;27.87;97664.42;;;;117410;1189;25230;-54
2022/06/06 03:01:29;;;;;;;;;5.00;3.00;;;27.86;97668.03;;;;117391;1191;26029;-60
2022/06/06 03:03:59;;;;;;;;;5.00;4.00;;;27.85;97663.55;;;;117415;1189;25146;-58
2022/06/06 03:06:59;;;;;;;;;4.25;2.75;;;27.63;97663.64;;;;117406;1190;25203;-59
2022/06/06 03:10:01;;;;;;;;;3.75;3.50;;;27.42;97657.56;;;;117293;1189;24975;-58
2022/06/06 03:13:09;;;;;;;;;3.00;1.00;;;27.38;97655.98;;;;117370;1189;25411;-60
2022/06/06 03:22:54;;;;;;;;;2.00;2.00;;;27.53;97658.06;;;;117435;1190;25179;-55
2022/06/06 03:25:44;;;;;;;;;3.75;3.25;;;27.58;97660.86;;;;117403;1190;25511;-55
2022/06/06 03:28:41;;;;;;;;;4.00;4.00;;;27.59;97662.48;;;;117493;1191;24931;-56
2022/06/06 03:31:36;;;;;;;;;2.75;2.50;;;27.60;97658.64;;;;117444;1189;26115;-60
2022/06/06 03:34:24;;;;;;;;;5.00;3.67;;;27.61;97659.32;;;;117430;1189;25636;-60
2022/06/06 03:37:08;;;;;;;;;4.00;3.00;;;27.61;97664.46;;;;117387;1190;26468;-58
2022/06/06 03:39:45;;;;;;;;;4.25;4.25;;;27.61;97671.80;;;;117393;1189;26097;-59
2022/06/06 03:42:28;;;;;;;;;5.00;3.50;;;27.61;97670.67;;;;117394;1190;24860;-58
2022/06/06 03:45:11;;;;;;;;;7.67;3.33;;;27.62;97666.09;;;;117427;1190;25285;-58
2022/06/06 03:47:57;;;;;;;;;7.00;4.67;;;27.63;97667.45;;;;117420;1190;25127;-60
2022/06/06 03:50:33;;;;;;;;;9.25;7.00;;;27.65;97664.23;;;;117374;1190;25576;-60
2022/06/06 03:53:15;;;;;;;;;11.00;7.50;;;27.65;97665.43;;;;117445;1191;25259;-56
2022/06/06 03:56:34;;;;;;;;;15.00;10.75;;;27.69;97670.40;;;;117413;1190;24964;-57
2022/06/06 03:59:02;;;;;;;;;15.00;11.33;;;27.81;97672.98;;;;117357;1191;25194;-60
2022/06/06 04:01:33;;;;;;;;;7.67;7.33;;;27.85;97675.40;;;;117392;1189;25264;-59
2022/06/06 04:04:04;;;;;;;;;7.67;6.00;;;27.83;97678.45;;;;117402;1189;25786;-55
2022/06/06 04:06:34;;;;;;;;;8.33;7.33;;;27.84;97672.30;;;;117432;1190;26877;-57
2022/06/06 04:09:08;;;;;;;;;9.00;7.75;;;27.86;97671.23;;;;117406;1190;25775;-56
2022/06/06 04:11:48;;;;;;;;;3.00;1.67;;;27.87;97670.98;;;;117435;1190;24765;-58
2022/06/06 04:14:36;;;;;;;;;10.50;8.50;;;27.90;97671.64;;;;117447;1190;26182;-58
2022/06/06 04:17:27;;;;;;;;;8.00;5.75;;;27.93;97676.12;;;;117423;1190;26154;-58
2022/06/06 04:20:30;;;;;;;;;9.00;7.00;;;27.93;97678.17;;;;117433;1190;25596;-56
2022/06/06 04:23:28;;;;;;;;;9.00;9.00;;;27.93;97686.80;;;;117394;1189;25196;-53
2022/06/06 04:26:20;;;;;;;;;11.00;6.00;;;27.93;97691.30;;;;117407;1189;24879;-57
2022/06/06 04:29:05;;;;;;;;;6.50;5.50;;;27.93;97692.92;;;;117392;1191;26360;-55
2022/06/06 04:32:06;;;;;;;;;6.67;4.67;;;27.95;97702.73;;;;117396;1190;25530;-57
2022/06/06 04:34:51;;;;;;;;;6.00;5.50;;;27.98;97709.23;;;;117392;1190;25159;-56
2022/06/06 04:37:35;;;;;;;;;8.00;5.00;;;28.00;97710.30;;;;117506;1190;25209;-59
2022/06/06 04:40:49;;;;;;;;;8.33;6.33;;;28.04;97712.61;;;;117410;1190;25872;-59
2022/06/06 04:43:22;;;;;;;;;11.50;6.75;;;28.06;97713.89;;;;117378;1190;25900;-56
2022/06/06 04:46:21;;;;;;;;;6.50;6.25;;;28.04;97719.22;;;;117432;1190;25684;-55
2022/06/06 04:48:50;;;;;;;;;4.00;2.67;;;28.02;97718.71;;;;117504;1190;25533;-54
2022/06/06 04:51:21;;;;;;;;;9.00;5.25;;;28.01;97720.83;;;;117379;1190;25574;-55
2022/06/06 04:53:54;;;;;;;;;7.75;6.00;;;28.01;97722.63;;;;117405;1190;24879;-60
2022/06/06 04:56:23;;;;;;;;;7.00;4.33;;;28.01;97722.15;;;;117408;1190;24949;-51
2022/06/06 04:59:00;;;;;;;;;10.33;6.00;;;28.03;97725.73;;;;117425;1190;25543;-53
2022/06/06 05:01:35;;;;;;;;;11.25;7.00;;;28.04;97733.17;;;;117401;1190;24861;-51
2022/06/06 05:04:06;;;;;;;;;8.33;6.33;;;28.06;97733.60;;;;117490;1189;25458;-50
2022/06/06 05:06:48;;;;;;;;;6.00;6.00;;;28.06;97735.73;;;;117509;1190;25746;-56
2022/06/06 05:09:53;;;;;;;;;5.75;4.00;;;28.09;97740.54;;;;117457;1191;25539;-58
2022/06/06 05:12:44;;;;;;;;;9.75;6.25;;;28.15;97743.63;;;;117516;1190;24883;-54
2022/06/06 05:15:34;;;;;;;;;9.33;5.00;;;28.19;97749.36;;;;117483;1190;25250;-56
2022/06/06 05:18:06;;;;;;;;;5.25;5.25;;;28.22;97751.63;;;;117553;1189;24952;-55
2022/06/06 05:20:57;;;;;;;;;10.25;5.25;;;28.25;97754.23;;;;117442;1189;25390;-58
2022/06/06 05:23:48;;;;;;;;;7.75;5.00;;;28.25;97750.96;;;;117434;1190;25371;-61
2022/06/06 05:26:17;;;;;;;;;6.50;6.25;;;28.27;97749.80;;;;117332;1190;26575;-62
2022/06/06 05:28:51;;;;;;;;;8.75;6.75;;;28.26;97750.27;;;;117537;1190;25633;-59
2022/06/06 05:31:34;;;;;;;;;6.33;2.33;;;28.28;97753.45;;;;117449;1190;25288;-58
2022/06/06 05:34:20;;;;;;;;;6.75;6.00;;;28.30;97757.80;;;;117413;1191;26715;-55
2022/06/06 05:37:15;;;;;;;;;4.00;3.33;;;28.30;97763.11;;;;117419;1189;24758;-60
2022/06/06 05:40:18;;;;;;;;;5.00;5.00;;;28.30;97762.50;;;;117438;1191;25032;-60
2022/06/06 05:42:51;;;;;;;;;8.50;6.25;;;28.30;97758.98;;;;117147;1191;26224;-56
2022/06/06 05:45:32;;;;;;;;;7.25;5.50;;;28.30;97754.23;;;;117504;1190;26404;-60
2022/06/06 05:48:34;;;;;;;;;5.00;3.25;;;28.27;97754.46;;;;117424;1190;25085;-58
2022/06/06 05:51:23;;;;;;;;;6.25;5.50;;;28.27;97759.52;;;;117450;1190;25023;-58
2022/06/06 05:54:24;;;;;;;;;3.25;3.25;;;28.26;97763.85;;;;117500;1190;26425;-59
2022/06/06 05:57:07;;;;;;;;;5.50;4.00;;;28.27;97760.80;;;;117303;1191;26266;-60
2022/06/06 05:59:59;;;;;;;;;5.00;5.00;;;28.27;97762.80;;;;117355;1190;25603;-64
2022/06/06 06:02:40;;;;;;;;;8.00;6.00;;;28.27;97758.06;;;;117393;1189;25055;-63
2022/06/06 06:05:15;;;;;;;;;6.25;5.50;;;28.26;97758.45;;;;117401;1189;24711;-61
2022/06/06 06:08:09;;;;;;;;;5.25;4.50;;;28.25;97758.16;;;;117406;1190;25284;-63
2022/06/06 06:10:51;;;;;;;;;4.50;4.25;;;28.26;97759.65;;;;117453;1190;25197;-65
2022/06/06 06:14:15;;;;;;;;;6.00;6.00;;;28.30;97760.21;;;;117586;1189;25358;-60
2022/06/06 06:16:51;;;;;;;;;7.00;5.50;;;28.40;97763.35;;;;117235;1192;24725;-60
2022/06/06 06:19:31;;;;;;;;;5.00;5.00;;;28.43;97764.65;;;;117427;1190;25570;-61
2022/06/06 06:22:04;;;;;;;;;6.75;4.75;;;28.43;97764.44;;;;117427;1190;26456;-60
2022/06/06 06:24:37;;;;;;;;;1.00;1.00;;;28.42;97767.75;;;;117414;1189;24838;-58
2022/06/06 06:27:08;;;;;;;;;3.75;3.75;;;28.40;97773.09;;;;117460;1189;25332;-59
2022/06/06 06:29:38;;;;;;;;;6.50;5.00;;;28.40;97775.33;;;;117530;1189;26284;-57
2022/06/06 06:32:23;;;;;;;;;7.50;5.00;;;28.41;97773.13;;;;117360;1190;26351;-66
2022/06/06 06:35:12;;;;;;;;;5.50;5.50;;;28.41;97775.55;;;;117452;1190;25097;-62
2022/06/06 06:38:19;;;;;;;;;4.25;3.00;;;28.42;97776.89;;;;117414;1189;25703;-63
2022/06/06 06:40:52;;;;;;;;;4.00;4.00;;;28.47;97776.20;;;;117296;1191;24976;-61
2022/06/06 06:43:29;;;;;;;;;5.00;5.00;;;28.48;97776.77;;;;117473;1191;25770;-59
2022/06/06 06:46:13;;;;;;;;;4.00;3.00;;;28.47;97773.81;;;;117408;1190;25491;-62
2022/06/06 06:48:45;;;;;;;;;4.00;4.00;;;28.49;97772.44;;;;117464;1190;24869;-61
2022/06/06 06:51:26;;;;;;;;;6.00;4.00;;;28.49;97773.14;;;;117537;1190;25531;-60
2022/06/06 06:54:04;;;;;;;;;5.75;4.00;;;28.50;97776.61;;;;117427;1191;25481;-57
2022/06/06 06:56:37;;;;;;;;;5.50;2.25;;;28.51;97776.64;;;;117483;1190;25228;-57
2022/06/06 06:59:15;;;;;;;;;4.00;4.00;;;28.52;97775.87;;;;117383;1190;27344;-57
2022/06/06 07:09:05;;;;;;;;;6.33;3.00;;;28.59;97776.95;;;;117370;1191;26491;-60
2022/06/06 07:11:47;;;;;;;;;4.25;3.00;;;28.63;97770.44;;;;117365;1190;26254;-58
2022/06/06 07:14:37;;;;;;;;;4.50;3.50;;;28.59;97772.55;;;;117426;1190;25214;-61
2022/06/06 07:17:09;;;;;;;;;2.00;2.00;;;28.54;97769.90;;;;117371;1190;25658;-60
2022/06/06 07:20:05;;;;;;;;;2.25;2.25;;;28.49;97769.63;;;;117428;1190;25349;-57
2022/06/06 07:25:28;;;;;;;;;3.50;2.50;;;28.49;97775.00;;;;117363;1189;26375;-57
2022/06/06 07:27:57;;;;;;;;;2.67;2.67;;;28.45;97774.90;;;;117480;1190;26200;-59
2022/06/06 07:30:33;;;;;;;;;2.00;2.00;;;28.45;97774.60;;;;117391;1190;25836;-58
2022/06/06 07:33:10;;;;;;;;;2.00;2.00;;;28.43;97780.81;;;;117407;1189;24776;-59
2022/06/06 07:35:51;;;;;;;;;2.33;2.33;;;28.42;97787.13;;;;117415;1190;25668;-61
2022/06/06 07:38:58;;;;;;;;;3.50;2.00;;;28.40;97788.80;;;;117418;1191;25170;-58
2022/06/06 07:41:52;;;;;;;;;2.67;2.67;;;28.42;97786.29;;;;117404;1189;25834;-60
2022/06/06 07:44:54;;;;;;;;;2.00;2.00;;;28.43;97788.05;;;;117441;1190;24805;-57
2022/06/06 07:47:41;;;;;;;;;2.00;2.00;;;28.44;97791.87;;;;117346;1191;25275;-56
2022/06/06 07:50:23;;;;;;;;;4.50;2.50;;;28.41;97795.81;;;;117419;1190;26214;-56
2022/06/06 07:53:02;;;;;;;;;2.00;2.00;;;28.40;97794.02;;;;117419;1191;25701;-59
2022/06/06 07:55:47;;;;;;;;;2.00;2.00;;;28.40;97792.09;;;;117496;1189;24752;-58
2022/06/06 07:58:21;;;;;;;;;2.00;2.00;;;28.39;97794.70;;;;117521;1191;25727;-60
2022/06/06 08:01:13;;;;;;;;;2.00;2.00;;;28.39;97797.80;;;;117509;1189;26314;-61
2022/06/06 08:03:51;;;;;;;;;1.50;1.50;;;28.42;97793.59;;;;117501;1190;24987;-61
2022/06/06 08:06:47;;;;;;;;;2.67;2.67;;;28.44;97786.14;;;;117455;1190;25109;-61
2022/06/06 08:09:50;;;;;;;;;2.50;2.50;;;28.46;97778.09;;;;117345;1190;26411;-59
2022/06/06 08:13:00;;;;;;;;;4.00;3.00;;;28.47;97780.90;;;;117456;1190;25679;-56
2022/06/06 08:15:44;;;;;;;;;2.50;2.25;;;28.47;97788.88;;;;117089;1194;25733;-57
2022/06/06 08:18:15;;;;;;;;;1.00;1.00;;;28.46;97787.30;;;;117111;1194;24886;-61
2022/06/06 08:20:54;;;;;;;;;3.00;2.00;;;28.46;97782.19;;;;117067;1193;25177;-56
2022/06/06 08:23:25;;;;;;;;;3.50;2.25;;;28.45;97782.93;;;;117113;1193;25386;-56
2022/06/06 08:25:57;;;;;;;;;3.50;2.00;;;28.44;97779.40;;;;117043;1191;25329;-61
2022/06/06 08:28:26;;;;;;;;;2.25;2.25;;;28.44;97776.35;;;;117341;1191;25076;-61
2022/06/06 08:30:54;;;;;;;;;2.00;2.00;;;28.43;97778.95;;;;117367;1191;25584;-59
2022/06/06 08:33:26;;;;;;;;;0.00;0.00;;;28.41;97780.48;;;;117446;1190;25244;-57
2022/06/06 08:36:25;;;;;;;;;1.50;1.50;;;28.41;97774.42;;;;117392;1191;24993;-54
2022/06/06 08:39:03;;;;;;;;;3.00;2.00;;;28.43;97773.60;;;;117368;1189;25766;-59
2022/06/06 08:41:53;;;;;;;;;3.33;3.00;;;28.43;97773.31;;;;117400;1190;24927;-62
2022/06/06 08:44:23;;;;;;;;;2.00;2.00;;;28.45;97772.77;;;;117411;1191;25813;-60
2022/06/06 08:47:02;;;;;;;;;3.25;3.25;;;28.45;97773.60;;;;117471;1190;25896;-58
2022/06/06 08:53:14;;;;;;;;;3.25;3.25;;;28.50;97776.58;;;;117386;1190;25205;-57
2022/06/06 08:56:29;;;;;;;;;5.00;3.00;;;28.47;97773.23;;;;117454;1190;25154;-57
2022/06/06 08:59:37;;;;;;;;;3.75;3.75;;;28.52;97779.86;;;;117313;1190;26420;-56
2022/06/06 09:02:34;;;;;;;;;2.00;2.00;;;28.50;97776.02;;;;117485;1190;24998;-57
2022/06/06 09:05:26;;;;;;;;;4.25;1.50;;;28.49;97774.50;;;;117392;1190;24737;-57
2022/06/06 09:08:33;;;;;;;;;4.00;4.00;;;28.47;97777.55;;;;117513;1191;26098;-57
2022/06/06 09:11:26;;;;;;;;;5.00;5.00;;;28.47;97772.03;;;;117388;1190;25478;-57
2022/06/06 09:14:33;;;;;;;;;6.50;6.50;;;28.45;97769.88;;;;117388;1190;24939;-56
2022/06/06 09:17:22;;;;;;;;;5.00;4.00;;;28.46;97763.81;;;;117367;1190;24996;-56
2022/06/06 09:20:15;;;;;;;;;4.33;4.00;;;28.46;97765.58;;;;117537;1189;25215;-55
2022/06/06 09:23:21;;;;;;;;;4.33;4.33;;;28.51;97764.41;;;;117485;1191;24966;-56
2022/06/06 09:26:28;;;;;;;;;6.25;4.25;;;28.50;97765.89;;;;117459;1189;26264;-55
2022/06/06 09:29:15;;;;;;;;;4.00;3.50;;;28.53;97756.02;;;;117359;1191;25236;-56
2022/06/06 09:32:07;;;;;;;;;5.50;5.00;;;28.50;97761.98;;;;117404;1191;25108;-54
2022/06/06 09:34:57;;;;;;;;;9.00;5.75;;;28.46;97762.17;;;;117461;1189;26094;-50
2022/06/06 09:37:49;;;;;;;;;4.67;4.67;;;28.45;97758.54;;;;117495;1191;24862;-52
2022/06/06 09:40:34;;;;;;;;;4.00;3.00;;;28.45;97759.93;;;;117405;1189;25644;-52
2022/06/06 09:43:33;;;;;;;;;4.50;3.50;;;28.43;97761.14;;;;117425;1190;25091;-54
2022/06/06 09:46:41;;;;;;;;;4.00;4.00;;;28.43;97772.20;;;;117374;1190;26259;-51
2022/06/06 09:49:15;;;;;;;;;3.33;3.33;;;28.39;97765.02;;;;117394;1189;25748;-54
2022/06/06 09:52:00;;;;;;;;;3.00;3.00;;;28.36;97762.70;;;;117565;1190;25151;-56
2022/06/06 10:01:29;;;;;;;;;3.75;3.75;;;28.51;97757.20;;;;117772;1190;25024;-50
2022/06/06 10:04:28;;;;;;;;;4.00;2.50;;;28.61;97754.50;;;;117320;1193;25653;-50
2022/06/06 10:07:11;;;;;;;;;4.00;3.67;;;28.62;97751.51;;;;117306;1194;25761;-53
2022/06/06 10:10:01;;;;;;;;;3.00;3.00;;;28.61;97750.45;;;;117738;1191;25565;-54
2022/06/06 10:12:52;;;;;;;;;3.00;3.00;;;28.63;97749.67;;;;117689;1189;24965;-53
2022/06/06 10:15:48;;;;;;;;;3.25;3.00;;;28.63;97749.13;;;;117764;1190;25196;-54
2022/06/06 10:18:37;;;;;;;;;7.50;3.00;;;28.65;97745.31;;;;117758;1191;25169;-54
2022/06/06 10:21:43;;;;;;;;;3.33;3.33;;;28.63;97740.75;;;;117764;1190;25549;-52
2022/06/06 10:24:43;;;;;;;;;3.50;2.75;;;28.65;97738.67;;;;117775;1191;26015;-49
2022/06/06 10:27:47;;;;;;;;;3.00;3.00;;;28.67;97736.17;;;;117618;1190;24916;-51
2022/06/06 10:30:28;;;;;;;;;5.00;3.00;;;28.68;97736.66;;;;117700;1190;25635;-52
2022/06/06 10:33:29;;;;;;;;;1.25;1.25;;;28.67;97731.67;;;;117668;1190;26184;-52
2022/06/06 10:36:24;;;;;;;;;2.50;2.50;;;28.68;97734.35;;;;117688;1190;24830;-56
2022/06/06 10:39:31;;;;;;;;;3.00;3.00;;;28.72;97730.15;;;;117725;1190;25246;-54
2022/06/06 10:42:33;;;;;;;;;5.25;4.25;;;28.76;97734.20;;;;117462;1193;26368;-54
2022/06/06 10:45:30;;;;;;;;;4.00;3.00;;;28.80;97728.34;;;;117696;1190;25998;-60
2022/06/06 10:48:36;;;;;;;;;3.50;2.50;;;28.79;97726.27;;;;117814;1189;25215;-57
2022/06/06 10:51:41;;;;;;;;;3.00;3.00;;;28.79;97722.55;;;;117879;1191;25099;-55
2022/06/06 10:54:38;;;;;;;;;2.00;2.00;;;28.78;97725.61;;;;117816;1189;25488;-56
2022/06/06 10:57:40;;;;;;;;;5.00;4.33;;;28.81;97726.01;;;;117790;1190;24834;-56
2022/06/06 11:00:28;;;;;;;;;3.50;3.50;;;28.85;97717.61;;;;117661;1189;24765;-55
2022/06/06 11:03:18;;;;;;;;;3.67;3.67;;;28.89;97715.89;;;;117782;1190;25464;-57
2022/06/06 11:06:08;;;;;;;;;4.00;4.00;;;28.87;97710.30;;;;117894;1189;25714;-56
2022/06/06 11:08:42;;;;;;;;;2.50;2.00;;;28.88;97710.69;;;;117842;1190;25409;-56
2022/06/06 11:11:59;;;;;;;;;6.25;4.00;;;28.88;97706.83;;;;117931;1190;25220;-57
2022/06/06 11:14:36;;;;;;;;;4.00;2.00;;;28.93;97702.09;;;;117827;1189;25556;-56
2022/06/06 11:17:44;;;;;;;;;3.50;3.50;;;28.92;97697.06;;;;117811;1190;25255;-54
2022/06/06 11:20:24;;;;;;;;;3.00;3.00;;;28.94;97694.77;;;;117803;1190;25106;-56
2022/06/06 11:23:18;;;;;;;;;4.00;2.00;;;28.93;97692.89;;;;117856;1189;24732;-56
2022/06/06 11:26:34;;;;;;;;;2.67;2.67;;;28.97;97691.10;;;;117739;1189;25738;-55
2022/06/06 11:29:29;;;;;;;;;2.75;2.75;;;29.03;97684.42;;;;117742;1190;24916;-55
2022/06/06 11:32:37;;;;;;;;;4.50;4.50;;;29.02;97678.23;;;;117702;1190;24787;-56
2022/06/06 11:35:15;;;;;;;;;3.25;3.00;;;29.00;97675.21;;;;117772;1190;25832;-54
2022/06/06 11:38:07;;;;;;;;;3.00;3.00;;;28.98;97680.36;;;;117791;1190;24746;-55
2022/06/06 11:41:03;;;;;;;;;6.00;3.00;;;29.00;97684.05;;;;117728;1189;25621;-56
2022/06/06 11:43:40;;;;;;;;;2.50;2.50;;;28.99;97682.45;;;;117811;1189;26260;-57
2022/06/06 11:46:43;;;;;;;;;4.33;3.67;;;28.98;97685.70;;;;117983;1189;25257;-57
2022/06/06 11:49:23;;;;;;;;;2.00;2.00;;;29.08;97684.08;;;;118455;1190;25030;-54
2022/06/06 11:52:11;;;;;;;;;3.25;2.50;;;29.23;97685.63;;;;118316;1189;26790;-53
2022/06/06 11:55:10;;;;;;;;;4.25;4.25;;;29.31;97685.40;;;;118347;1190;25526;-52
2022/06/06 11:58:03;;;;;;;;;6.00;3.75;;;29.38;97682.13;;;;118438;1190;24950;-57
2022/06/06 12:01:09;;;;;;;;;9.00;8.00;;;29.46;97681.05;;;;118055;1190;25529;-53
2022/06/06 12:04:28;;;;;;;;;9.50;6.25;;;29.45;97671.19;;;;118220;1189;25526;-51
2022/06/06 12:06:55;;;;;;;;;9.25;7.25;;;29.51;97669.56;;;;117767;1189;25682;-52
2022/06/06 12:09:28;;;;;;;;;6.00;5.00;;;29.47;97669.63;;;;118164;1191;25154;-54
2022/06/06 12:12:19;;;;;;;;;5.33;5.33;;;29.44;97674.23;;;;117967;1189;25101;-50
2022/06/06 12:15:29;;;;;;;;;5.00;5.00;;;29.44;97664.92;;;;118096;1190;25695;-55
2022/06/06 12:18:16;;;;;;;;;2.00;2.00;;;29.47;97658.63;;;;118235;1189;25961;-56
2022/06/06 12:21:23;;;;;;;;;3.00;2.00;;;29.48;97656.63;;;;117979;1191;24750;-57
2022/06/06 12:23:55;;;;;;;;;3.00;3.00;;;29.46;97653.63;;;;117932;1190;25853;-56
2022/06/06 12:26:47;;;;;;;;;2.75;2.75;;;29.40;97661.51;;;;118116;1190;25559;-51
2022/06/06 12:29:20;;;;;;;;;2.00;2.00;;;29.43;97657.98;;;;118152;1191;24952;-52
2022/06/06 12:32:18;;;;;;;;;2.00;2.00;;;29.45;97660.85;;;;118151;1189;26245;-56
2022/06/06 12:35:03;;;;;;;;;2.00;2.00;;;29.49;97658.23;;;;118213;1190;26190;-57
2022/06/06 12:37:34;;;;;;;;;2.00;2.00;;;29.52;97655.07;;;;118130;1190;26182;-56
2022/06/06 12:40:28;;;;;;;;;1.00;1.00;;;29.54;97652.55;;;;117988;1190;25085;-58
2022/06/06 12:43:20;;;;;;;;;3.50;3.50;;;29.53;97650.92;;;;118021;1189;24885;-54
2022/06/06 12:46:17;;;;;;;;;3.75;3.00;;;29.52;97652.36;;;;118114;1190;25515;-54
2022/06/06 12:49:08;;;;;;;;;2.50;2.50;;;29.54;97649.04;;;;118091;1189;25501;-54
2022/06/06 12:51:39;;;;;;;;;4.00;3.00;;;29.57;97645.80;;;;118242;1190;25088;-54
2022/06/06 12:54:29;;;;;;;;;2.00;2.00;;;29.60;97641.22;;;;118207;1189;26314;-55
2022/06/06 12:57:00;;;;;;;;;2.33;2.00;;;29.65;97640.95;;;;117996;1190;25804;-57
2022/06/06 12:59:39;;;;;;;;;2.00;2.00;;;29.64;97640.51;;;;118284;1190;25669;-55
2022/06/06 13:02:48;;;;;;;;;4.25;2.75;;;29.69;97640.19;;;;118248;1189;25735;-55
2022/06/06 13:05:32;;;;;;;;;3.00;3.00;;;29.77;97641.94;;;;118202;1191;24915;-56
2022/06/06 13:08:15;;;;;;;;;3.00;3.00;;;29.78;97640.09;;;;118263;1191;25184;-55
2022/06/06 13:11:13;;;;;;;;;2.33;2.33;;;29.82;97637.55;;;;118480;1190;25992;-54
2022/06/06 13:14:01;;;;;;;;;2.50;2.25;;;29.90;97636.55;;;;118549;1190;25910;-55
2022/06/06 13:17:06;;;;;;;;;2.00;2.00;;;29.97;97639.02;;;;118355;1191;26240;-56
2022/06/06 13:20:01;;;;;;;;;5.50;3.50;;;30.02;97639.29;;;;118458;1190;25104;-56
2022/06/06 13:22:56;;;;;;;;;3.00;3.00;;;30.09;97633.39;;;;118373;1190;25115;-56
2022/06/06 13:25:56;;;;;;;;;4.00;3.00;;;30.12;97633.50;;;;118435;1191;25720;-55
2022/06/06 13:28:31;;;;;;;;;4.00;4.00;;;30.18;97634.58;;;;118513;1189;25993;-56
2022/06/06 13:31:19;;;;;;;;;5.50;4.50;;;30.21;97628.23;;;;118846;1189;25796;-52
2022/06/06 13:34:14;;;;;;;;;5.50;5.00;;;30.32;97630.95;;;;118575;1191;25019;-56
2022/06/06 13:36:57;;;;;;;;;5.00;4.50;;;30.39;97633.30;;;;117864;1190;25784;-57
2022/06/06 13:39:49;;;;;;;;;7.75;4.75;;;30.35;97632.15;;;;118152;1189;25092;-53
2022/06/06 13:42:39;;;;;;;;;4.00;3.33;;;30.34;97634.38;;;;118139;1190;25679;-59
2022/06/06 13:45:20;;;;;;;;;5.50;3.25;;;30.35;97630.30;;;;118340;1189;25601;-59
2022/06/06 13:47:53;;;;;;;;;3.00;2.00;;;30.39;97632.79;;;;118105;1191;26207;-52
2022/06/06 13:50:30;;;;;;;;;3.75;3.25;;;30.37;97634.30;;;;118225;1190;24886;-56
2022/06/06 13:53:21;;;;;;;;;3.75;3.75;;;30.39;97633.02;;;;118112;1189;25988;-53
2022/06/06 13:56:28;;;;;;;;;4.00;4.00;;;30.40;97631.73;;;;118112;1191;26206;-54
2022/06/06 13:59:29;;;;;;;;;4.00;3.50;;;30.44;97627.83;;;;117886;1190;24867;-52
2022/06/06 14:02:28;;;;;;;;;3.25;3.25;;;30.44;97631.40;;;;118205;1190;24992;-54
2022/06/06 14:05:13;;;;;;;;;6.25;5.25;;;30.43;97631.09;;;;118078;1190;25607;-55